createdAt,value
2017-10-02T00:00:50.821Z,101151.06
2017-10-02T00:03:19.148Z,101143.53
2017-10-02T00:05:47.518Z,101145.53
2017-10-02T00:08:15.825Z,101141.27
2017-10-02T00:10:44.158Z,101143.74
2017-10-02T00:13:12.494Z,101135.90
2017-10-02T00:15:40.845Z,101132.47
2017-10-02T00:18:09.149Z,101135.60
2017-10-02T00:20:37.461Z,101132.91
2017-10-02T00:23:05.786Z,101131.48
2017-10-02T00:25:34.086Z,101130.80
2017-10-02T00:28:02.410Z,101130.88
2017-10-02T00:30:30.715Z,101133.28
2017-10-02T00:32:59.033Z,101128.40
2017-10-02T00:35:27.350Z,101130.62
2017-10-02T00:37:55.661Z,101127.84
2017-10-02T00:40:23.985Z,101120.59
2017-10-02T00:42:53.797Z,101115.37
2017-10-02T00:45:22.105Z,101111.15
2017-10-02T00:47:50.401Z,101106.16
2017-10-02T00:50:18.709Z,101103.46
2017-10-02T00:52:47.043Z,101099.16
2017-10-02T00:55:15.361Z,101093.14
2017-10-02T00:57:43.662Z,101086.05
2017-10-02T01:00:12.746Z,101084.81
2017-10-02T01:02:41.054Z,101082.93
2017-10-02T01:05:09.365Z,101075.29
2017-10-02T01:07:37.673Z,101069.95
2017-10-02T01:10:05.987Z,101067.73
2017-10-02T01:12:34.306Z,101061.47
2017-10-02T01:15:02.646Z,101058.86
2017-10-02T01:17:30.945Z,101058.58
2017-10-02T01:19:59.244Z,101056.16
2017-10-02T01:22:27.584Z,101055.72
2017-10-02T01:24:55.878Z,101047.58
2017-10-02T01:27:24.186Z,101045.31
2017-10-02T01:29:52.483Z,101039.24
2017-10-02T01:32:21.565Z,101039.84
2017-10-02T01:34:50.633Z,101039.75
2017-10-02T01:37:19.009Z,101036.77
2017-10-02T01:39:47.306Z,101036.59
2017-10-02T01:42:15.636Z,101027.72
2017-10-02T01:44:43.947Z,101021.65
2017-10-02T01:47:12.254Z,101012.25
2017-10-02T01:49:41.329Z,101008.77
2017-10-02T01:52:10.053Z,100994.34
2017-10-02T01:54:38.361Z,100985.23
2017-10-02T01:57:06.661Z,100982.39
2017-10-02T01:59:35.054Z,100978.83
2017-10-02T02:02:03.389Z,100977.97
2017-10-02T02:04:31.709Z,100974.16
2017-10-02T02:07:00.039Z,100969.80
2017-10-02T02:09:28.357Z,100969.80
2017-10-02T02:11:56.690Z,100974.19
2017-10-02T02:14:25.006Z,100976.94
2017-10-02T02:16:53.326Z,100972.63
2017-10-02T02:19:22.405Z,100973.66
2017-10-02T02:21:51.484Z,100974.69
2017-10-02T02:24:19.810Z,100975.43
2017-10-02T02:26:48.158Z,100976.46
2017-10-02T02:29:17.230Z,100982.95
2017-10-02T02:31:45.560Z,100982.97
2017-10-02T02:34:13.882Z,100984.09
2017-10-02T02:36:42.212Z,100978.30
2017-10-02T02:39:10.549Z,100979.33
2017-10-02T02:41:38.870Z,100984.22
2017-10-02T02:44:07.185Z,100985.58
2017-10-02T02:46:35.520Z,100979.33
2017-10-02T02:49:03.830Z,100975.25
2017-10-02T02:51:32.142Z,100987.98
2017-10-02T02:54:00.474Z,100989.75
2017-10-02T02:56:28.798Z,100983.23
2017-10-02T02:58:57.129Z,100980.31
2017-10-02T03:01:25.460Z,100988.16
2017-10-02T03:03:54.532Z,100990.91
2017-10-02T03:06:22.855Z,100977.38
2017-10-02T03:08:51.174Z,100975.40
2017-10-02T03:11:19.499Z,100977.81
2017-10-02T03:13:47.822Z,100973.59
2017-10-02T03:16:16.148Z,100960.35
2017-10-02T03:18:45.245Z,100950.44
2017-10-02T03:21:14.353Z,100950.31
2017-10-02T03:23:42.666Z,100932.02
2017-10-02T03:26:10.998Z,100924.29
2017-10-02T03:28:40.087Z,100923.67
2017-10-02T03:31:09.175Z,100907.30
2017-10-02T03:33:38.262Z,100903.52
2017-10-02T03:36:06.570Z,100896.52
2017-10-02T03:38:34.900Z,100892.66
2017-10-02T03:41:03.211Z,100891.55
2017-10-02T03:43:32.318Z,100892.92
2017-10-02T03:46:00.632Z,100891.88
2017-10-02T03:48:28.978Z,100893.65
2017-10-02T03:50:57.281Z,100901.10
2017-10-02T03:53:25.594Z,100895.05
2017-10-02T03:55:53.913Z,100899.65
2017-10-02T03:58:22.221Z,100892.20
2017-10-02T04:00:50.549Z,100881.42
2017-10-02T04:03:19.643Z,100882.25
2017-10-02T04:05:48.745Z,100873.58
2017-10-02T04:08:17.820Z,100872.91
2017-10-02T04:10:46.189Z,100866.04
2017-10-02T04:13:14.497Z,100863.95
2017-10-02T04:15:43.593Z,100867.69
2017-10-02T04:18:12.662Z,100865.30
2017-10-02T04:20:41.003Z,100862.33
2017-10-02T04:23:09.306Z,100858.97
2017-10-02T04:25:37.618Z,100844.27
2017-10-02T04:28:06.718Z,100838.92
2017-10-02T04:30:35.796Z,100824.50
2017-10-02T04:33:04.903Z,100815.06
2017-10-02T04:35:33.981Z,100806.83
2017-10-02T04:38:02.302Z,100797.91
2017-10-02T04:40:30.602Z,100800.63
2017-10-02T04:42:58.955Z,100802.59
2017-10-02T04:45:27.281Z,100802.02
2017-10-02T04:47:55.597Z,100797.56
2017-10-02T04:50:23.917Z,100799.97
2017-10-02T04:52:52.238Z,100786.45
2017-10-02T04:55:21.332Z,100780.30
2017-10-02T04:57:50.410Z,100770.45
2017-10-02T05:00:18.721Z,100774.11
2017-10-02T05:02:47.029Z,100777.19
2017-10-02T05:05:15.342Z,100774.94
2017-10-02T05:07:43.653Z,100774.64
2017-10-02T05:10:12.048Z,100777.06
2017-10-02T05:12:40.361Z,100774.34
2017-10-02T05:15:08.677Z,100777.38
2017-10-02T05:17:37.766Z,100781.87
2017-10-02T05:20:06.860Z,100778.70
2017-10-02T05:22:35.954Z,100787.73
2017-10-02T05:25:05.031Z,100777.80
2017-10-02T05:27:33.342Z,100778.42
2017-10-02T05:30:01.654Z,100770.95
2017-10-02T05:32:29.965Z,100773.08
2017-10-02T05:34:58.273Z,100761.63
2017-10-02T05:37:26.598Z,100765.48
2017-10-02T05:39:54.905Z,100751.30
2017-10-02T05:42:23.242Z,100743.10
2017-10-02T05:44:51.563Z,100738.84
2017-10-02T05:47:20.706Z,100747.95
2017-10-02T05:49:49.021Z,100744.11
2017-10-02T05:52:17.339Z,100743.52
2017-10-02T05:54:45.660Z,100737.88
2017-10-02T05:57:13.968Z,100741.35
2017-10-02T05:59:43.081Z,100738.37
2017-10-02T06:02:12.172Z,100731.30
2017-10-02T06:04:41.274Z,100735.95
2017-10-02T06:07:10.368Z,100727.91
2017-10-02T06:09:39.477Z,100731.31
2017-10-02T06:12:07.785Z,100725.64
2017-10-02T06:14:36.886Z,100725.73
2017-10-02T06:17:05.218Z,100721.23
2017-10-02T06:19:33.554Z,100715.70
2017-10-02T06:22:01.877Z,100718.70
2017-10-02T06:24:30.211Z,100715.09
2017-10-02T06:26:58.557Z,100719.41
2017-10-02T06:29:26.879Z,100717.80
2017-10-02T06:31:55.223Z,100714.08
2017-10-02T06:34:23.538Z,100714.98
2017-10-02T06:36:52.630Z,100708.37
2017-10-02T06:39:20.937Z,100711.41
2017-10-02T06:41:49.250Z,100710.15
2017-10-02T06:44:17.557Z,100710.25
2017-10-02T06:46:45.896Z,100711.25
2017-10-02T06:49:14.214Z,100698.97
2017-10-02T06:51:42.546Z,100706.09
2017-10-02T06:54:10.868Z,100694.62
2017-10-02T06:56:39.179Z,100695.05
2017-10-02T06:59:07.715Z,100689.17
2017-10-02T07:01:36.030Z,100687.46
2017-10-02T07:04:04.946Z,100680.72
2017-10-02T07:06:33.276Z,100672.66
2017-10-02T07:09:02.369Z,100678.97
2017-10-02T07:11:30.686Z,100674.19
2017-10-02T07:13:59.008Z,100678.52
2017-10-02T07:16:28.089Z,100675.06
2017-10-02T07:18:56.426Z,100669.14
2017-10-02T07:21:24.760Z,100670.14
2017-10-02T07:23:53.082Z,100675.38
2017-10-02T07:26:21.409Z,100672.06
2017-10-02T07:28:49.734Z,100672.16
2017-10-02T07:31:18.819Z,100667.33
2017-10-02T07:33:47.936Z,100660.57
2017-10-02T07:36:16.254Z,100660.22
2017-10-02T07:38:45.375Z,100652.53
2017-10-02T07:41:13.688Z,100658.29
2017-10-02T07:43:42.042Z,100657.09
2017-10-02T07:46:11.112Z,100647.88
2017-10-02T07:48:39.438Z,100649.05
2017-10-02T07:51:07.751Z,100635.30
2017-10-02T07:53:36.078Z,100636.69
2017-10-02T07:56:04.426Z,100633.62
2017-10-02T07:58:32.734Z,100626.52
2017-10-02T08:01:01.824Z,100628.74
2017-10-02T08:03:30.897Z,100615.67
2017-10-02T08:05:59.222Z,100615.87
2017-10-02T08:08:27.540Z,100607.94
2017-10-02T08:10:55.854Z,100613.08
2017-10-02T08:13:24.921Z,100606.57
2017-10-02T08:15:53.246Z,100603.45
2017-10-02T08:18:21.567Z,100606.41
2017-10-02T08:20:49.890Z,100603.89
2017-10-02T08:23:18.206Z,100600.86
2017-10-02T08:25:46.527Z,100598.33
2017-10-02T08:28:15.598Z,100599.63
2017-10-02T08:30:43.904Z,100597.28
2017-10-02T08:33:12.231Z,100594.72
2017-10-02T08:35:40.541Z,100604.51
2017-10-02T08:38:08.849Z,100603.40
2017-10-02T08:40:37.176Z,100597.03
2017-10-02T08:43:05.492Z,100602.00
2017-10-02T08:45:34.606Z,100599.61
2017-10-02T08:48:03.186Z,100588.86
2017-10-02T08:50:31.494Z,100585.31
2017-10-02T08:52:59.814Z,100592.39
2017-10-02T08:55:28.117Z,100594.62
2017-10-02T08:57:56.440Z,100588.91
2017-10-02T09:00:24.762Z,100584.09
2017-10-02T09:02:53.118Z,100594.28
2017-10-02T09:05:21.425Z,100595.07
2017-10-02T09:07:49.759Z,100589.16
2017-10-02T09:10:18.072Z,100589.25
2017-10-02T09:12:46.413Z,100597.01
2017-10-02T09:15:14.723Z,100596.30
2017-10-02T09:17:44.055Z,100595.86
2017-10-02T09:20:12.365Z,100590.80
2017-10-02T09:22:40.701Z,100593.63
2017-10-02T09:25:09.011Z,100584.12
2017-10-02T09:27:37.346Z,100585.64
2017-10-02T09:30:05.670Z,100583.16
2017-10-02T09:32:34.018Z,100573.75
2017-10-02T09:35:02.324Z,100585.50
2017-10-02T09:37:30.625Z,100578.10
2017-10-02T09:39:58.953Z,100581.23
2017-10-02T09:42:27.266Z,100572.05
2017-10-02T09:44:55.587Z,100572.91
2017-10-02T09:47:23.898Z,100575.50
2017-10-02T09:49:52.214Z,100577.48
2017-10-02T09:52:20.509Z,100578.10
2017-10-02T09:54:48.842Z,100577.22
2017-10-02T09:57:17.185Z,100573.25
2017-10-02T09:59:45.564Z,100561.84
2017-10-02T10:02:13.880Z,100563.46
2017-10-02T10:04:42.193Z,100562.63
2017-10-02T10:07:10.493Z,100568.16
2017-10-02T10:09:38.808Z,100562.16
2017-10-02T10:12:07.105Z,100559.16
2017-10-02T10:14:35.426Z,100554.29
2017-10-02T10:17:03.762Z,100557.05
2017-10-02T10:19:32.107Z,100558.69
2017-10-02T10:22:00.410Z,100551.83
2017-10-02T10:24:28.741Z,100552.07
2017-10-02T10:26:57.045Z,100555.50
2017-10-02T10:29:25.341Z,100559.22
2017-10-02T10:31:53.667Z,100563.49
2017-10-02T10:34:21.983Z,100560.88
2017-10-02T10:36:50.306Z,100560.18
2017-10-02T10:39:18.623Z,100557.86
2017-10-02T10:41:46.939Z,100559.91
2017-10-02T10:44:15.255Z,100561.08
2017-10-02T10:46:43.598Z,100563.17
2017-10-02T10:49:12.681Z,100562.05
2017-10-02T10:51:40.998Z,100564.23
2017-10-02T10:54:09.310Z,100565.38
2017-10-02T10:56:37.630Z,100566.41
2017-10-02T10:59:06.715Z,100570.64
2017-10-02T11:01:35.056Z,100568.46
2017-10-02T11:04:03.382Z,100576.69
2017-10-02T11:06:32.466Z,100558.13
2017-10-02T11:09:00.794Z,100563.38
2017-10-02T11:11:29.101Z,100551.61
2017-10-02T11:13:57.431Z,100553.22
2017-10-02T11:16:25.742Z,100538.80
2017-10-02T11:18:54.070Z,100531.63
2017-10-02T11:21:23.223Z,100517.88
2017-10-02T11:23:51.568Z,100516.48
2017-10-02T11:26:19.887Z,100515.98
2017-10-02T11:28:48.207Z,100507.88
2017-10-02T11:31:16.522Z,100494.03
2017-10-02T11:33:44.909Z,100487.44
2017-10-02T11:36:13.217Z,100484.33
2017-10-02T11:38:41.539Z,100490.45
2017-10-02T11:41:09.857Z,100498.14
2017-10-02T11:43:38.170Z,100498.13
2017-10-02T11:46:07.245Z,100501.08
2017-10-02T11:48:35.564Z,100482.38
2017-10-02T11:51:03.874Z,100494.11
2017-10-02T11:53:32.237Z,100499.31
2017-10-02T11:56:00.549Z,100492.77
2017-10-02T11:58:28.864Z,100490.48
2017-10-02T12:00:57.262Z,100481.70
2017-10-02T12:03:25.570Z,100490.03
2017-10-02T12:05:53.905Z,100484.27
2017-10-02T12:08:22.211Z,100495.89
2017-10-02T12:10:50.553Z,100491.52
2017-10-02T12:13:18.867Z,100489.94
2017-10-02T12:15:47.207Z,100499.62
2017-10-02T12:18:15.514Z,100477.30
2017-10-02T12:20:43.832Z,100486.95
2017-10-02T12:23:12.139Z,100485.93
2017-10-02T12:25:40.566Z,100485.33
2017-10-02T12:28:08.881Z,100488.40
2017-10-02T12:30:37.450Z,100487.92
2017-10-02T12:33:06.525Z,100488.50
2017-10-02T12:35:34.861Z,100478.34
2017-10-02T12:38:03.174Z,100481.47
2017-10-02T12:40:31.480Z,100493.24
2017-10-02T12:43:00.566Z,100488.98
2017-10-02T12:45:28.878Z,100488.43
2017-10-02T12:47:57.208Z,100500.42
2017-10-02T12:50:25.517Z,100507.05
2017-10-02T12:52:54.585Z,100499.27
2017-10-02T12:55:22.886Z,100507.48
2017-10-02T12:57:51.975Z,100507.23
2017-10-02T13:00:20.291Z,100506.44
2017-10-02T13:02:48.599Z,100500.69
2017-10-02T13:05:16.914Z,100496.36
2017-10-02T13:07:45.986Z,100496.55
2017-10-02T13:10:14.285Z,100494.37
2017-10-02T13:12:43.375Z,100502.13
2017-10-02T13:15:12.443Z,100495.80
2017-10-02T13:17:40.751Z,100495.64
2017-10-02T13:20:09.822Z,100494.91
2017-10-02T13:22:38.138Z,100490.67
2017-10-02T13:25:06.451Z,100499.81
2017-10-02T13:27:34.786Z,100488.85
2017-10-02T13:30:03.857Z,100482.89
2017-10-02T13:32:32.177Z,100471.95
2017-10-02T13:35:00.489Z,100473.70
2017-10-02T13:37:28.797Z,100473.75
2017-10-02T13:39:57.108Z,100474.28
2017-10-02T13:42:25.404Z,100476.18
2017-10-02T13:44:53.715Z,100471.83
2017-10-02T13:47:22.018Z,100469.03
2017-10-02T13:49:51.098Z,100477.13
2017-10-02T13:52:19.413Z,100476.58
2017-10-02T13:54:47.718Z,100478.35
2017-10-02T13:57:16.094Z,100475.72
2017-10-02T13:59:45.188Z,100478.20
2017-10-02T14:02:13.503Z,100471.70
2017-10-02T14:04:41.814Z,100467.87
2017-10-02T14:07:10.124Z,100443.12
2017-10-02T14:09:38.434Z,100449.72
2017-10-02T14:12:06.754Z,100441.93
2017-10-02T14:14:35.082Z,100440.30
2017-10-02T14:17:03.402Z,100439.08
2017-10-02T14:19:32.101Z,100437.56
2017-10-02T14:22:00.401Z,100439.30
2017-10-02T14:24:28.735Z,100433.80
2017-10-02T14:26:57.054Z,100431.77
2017-10-02T14:29:25.392Z,100438.89
2017-10-02T14:31:53.711Z,100433.64
2017-10-02T14:34:22.018Z,100432.98
2017-10-02T14:36:50.343Z,100434.56
2017-10-02T14:39:18.637Z,100419.23
2017-10-02T14:41:46.967Z,100408.35
2017-10-02T14:44:16.038Z,100407.34
2017-10-02T14:46:44.353Z,100395.42
2017-10-02T14:49:12.657Z,100390.70
2017-10-02T14:51:40.965Z,100385.34
2017-10-02T14:54:09.281Z,100384.99
2017-10-02T14:56:37.590Z,100390.18
2017-10-02T14:59:05.896Z,100387.56
2017-10-02T15:01:34.214Z,100380.30
2017-10-02T15:04:02.526Z,100389.05
2017-10-02T15:06:30.869Z,100385.92
2017-10-02T15:08:59.179Z,100381.82
2017-10-02T15:11:27.533Z,100400.84
2017-10-02T15:13:55.844Z,100389.78
2017-10-02T15:16:24.146Z,100394.02
2017-10-02T15:18:52.464Z,100391.67
2017-10-02T15:21:20.771Z,100384.02
2017-10-02T15:23:49.092Z,100371.01
2017-10-02T15:26:18.166Z,100368.12
2017-10-02T15:28:46.474Z,100365.09
2017-10-02T15:31:15.577Z,100371.99
2017-10-02T15:33:43.893Z,100379.09
2017-10-02T15:36:12.204Z,100393.20
2017-10-02T15:38:40.517Z,100385.52
2017-10-02T15:41:08.825Z,100385.25
2017-10-02T15:43:37.152Z,100389.75
2017-10-02T15:46:06.224Z,100385.65
2017-10-02T15:48:34.547Z,100396.18
2017-10-02T15:51:02.873Z,100401.12
2017-10-02T15:53:31.199Z,100402.91
2017-10-02T15:55:59.505Z,100409.47
2017-10-02T15:58:27.832Z,100392.41
2017-10-02T16:00:56.911Z,100371.27
2017-10-02T16:03:25.259Z,100371.82
2017-10-02T16:05:53.583Z,100387.02
2017-10-02T16:08:22.666Z,100377.83
2017-10-02T16:10:50.994Z,100377.41
2017-10-02T16:13:19.301Z,100382.58
2017-10-02T16:15:47.628Z,100364.12
2017-10-02T16:18:15.927Z,100366.86
2017-10-02T16:20:44.253Z,100366.16
2017-10-02T16:23:12.559Z,100366.14
2017-10-02T16:25:40.885Z,100367.98
2017-10-02T16:28:09.185Z,100364.11
2017-10-02T16:30:37.499Z,100369.44
2017-10-02T16:33:05.816Z,100370.64
2017-10-02T16:35:34.129Z,100376.25
2017-10-02T16:38:03.206Z,100376.91
2017-10-02T16:40:31.526Z,100373.91
2017-10-02T16:42:59.837Z,100370.86
2017-10-02T16:45:28.148Z,100356.14
2017-10-02T16:47:57.231Z,100357.39
2017-10-02T16:50:25.546Z,100368.18
2017-10-02T16:52:53.863Z,100373.25
2017-10-02T16:55:22.198Z,100374.91
2017-10-02T16:57:50.502Z,100377.76
2017-10-02T17:00:18.811Z,100380.27
2017-10-02T17:02:47.133Z,100390.78
2017-10-02T17:05:15.439Z,100380.55
2017-10-02T17:10:19.100Z,100398.33
2017-10-02T17:12:47.404Z,100395.07
2017-10-02T17:15:15.700Z,100390.56
2017-10-02T17:17:44.018Z,100408.48
2017-10-02T17:20:12.326Z,100393.45
2017-10-02T17:22:41.416Z,100390.45
2017-10-02T17:25:10.514Z,100393.86
2017-10-02T17:27:39.609Z,100400.96
2017-10-02T17:30:08.698Z,100411.88
2017-10-02T17:32:37.783Z,100414.59
2017-10-02T17:35:06.080Z,100418.58
2017-10-02T17:37:35.162Z,100409.68
2017-10-02T17:40:04.244Z,100414.62
2017-10-02T17:42:32.570Z,100418.16
2017-10-02T17:45:00.892Z,100431.85
2017-10-02T17:47:29.223Z,100433.09
2017-10-02T17:49:57.534Z,100428.06
2017-10-02T17:52:25.878Z,100440.53
2017-10-02T17:54:54.202Z,100442.30
2017-10-02T17:57:22.506Z,100437.37
2017-10-02T17:59:51.583Z,100433.69
2017-10-02T18:02:19.887Z,100415.62
2017-10-02T18:04:48.983Z,100413.02
2017-10-02T18:07:18.049Z,100417.28
2017-10-02T18:09:46.361Z,100410.29
2017-10-02T18:12:14.669Z,100419.61
2017-10-02T18:14:42.980Z,100413.73
2017-10-02T18:17:11.286Z,100403.47
2017-10-02T18:19:39.603Z,100402.10
2017-10-02T18:22:07.905Z,100397.31
2017-10-02T18:24:36.230Z,100407.29
2017-10-02T18:27:04.543Z,100405.78
2017-10-02T18:29:32.882Z,100398.39
2017-10-02T18:32:01.240Z,100398.11
2017-10-02T18:34:30.327Z,100401.25
2017-10-02T18:36:59.410Z,100405.75
2017-10-02T18:39:27.753Z,100410.27
2017-10-02T18:41:56.064Z,100405.75
2017-10-02T18:44:24.441Z,100405.47
2017-10-02T18:46:52.761Z,100397.27
2017-10-02T18:49:22.637Z,100394.42
2017-10-02T18:51:50.946Z,100395.23
2017-10-02T18:54:20.037Z,100409.30
2017-10-02T18:56:49.126Z,100404.94
2017-10-02T18:59:18.198Z,100407.38
2017-10-02T19:01:46.530Z,100418.83
2017-10-02T19:04:14.835Z,100420.61
2017-10-02T19:06:43.157Z,100422.81
2017-10-02T19:09:12.244Z,100419.27
2017-10-02T19:11:41.333Z,100420.77
2017-10-02T19:14:10.427Z,100412.48
2017-10-02T19:16:38.737Z,100421.38
2017-10-02T19:19:07.049Z,100422.10
2017-10-02T19:21:35.366Z,100403.36
2017-10-02T19:24:03.669Z,100402.54
2017-10-02T19:26:32.357Z,100402.97
2017-10-02T19:29:00.681Z,100405.02
2017-10-02T19:31:28.979Z,100408.17
2017-10-02T19:33:58.098Z,100401.19
2017-10-02T19:36:26.401Z,100396.82
2017-10-02T19:38:54.713Z,100400.80
2017-10-02T19:41:23.022Z,100394.53
2017-10-02T19:43:51.360Z,100396.00
2017-10-02T19:46:19.669Z,100399.59
2017-10-02T19:48:48.749Z,100398.21
2017-10-02T19:51:17.058Z,100404.64
2017-10-02T19:53:45.373Z,100399.05
2017-10-02T19:56:13.670Z,100396.15
2017-10-02T19:58:41.988Z,100397.95
2017-10-02T20:01:10.286Z,100398.89
2017-10-02T20:03:38.634Z,100390.42
2017-10-02T20:06:07.713Z,100385.37
2017-10-02T20:08:36.803Z,100378.94
2017-10-02T20:11:05.638Z,100376.33
2017-10-02T20:13:33.949Z,100373.20
2017-10-02T20:16:02.291Z,100377.14
2017-10-02T20:18:30.603Z,100369.09
2017-10-02T20:20:58.932Z,100359.11
2017-10-02T20:23:27.241Z,100363.19
2017-10-02T20:25:55.555Z,100363.62
2017-10-02T20:28:23.879Z,100369.35
2017-10-02T20:30:52.207Z,100370.45
2017-10-02T20:33:20.514Z,100364.72
2017-10-02T20:35:49.603Z,100360.47
2017-10-02T20:38:18.683Z,100357.73
2017-10-02T20:40:47.320Z,100347.32
2017-10-02T20:43:15.617Z,100352.52
2017-10-02T20:45:43.941Z,100355.67
2017-10-02T20:48:12.281Z,100366.77
2017-10-02T20:50:41.385Z,100366.05
2017-10-02T20:53:09.717Z,100374.00
2017-10-02T20:55:38.075Z,100364.16
2017-10-02T20:58:06.403Z,100359.37
2017-10-02T21:00:34.721Z,100348.44
2017-10-02T21:03:03.810Z,100349.80
2017-10-02T21:05:32.898Z,100339.94
2017-10-02T21:08:01.977Z,100348.83
2017-10-02T21:10:30.286Z,100338.01
2017-10-02T21:12:59.362Z,100346.38
2017-10-02T21:15:27.674Z,100345.14
2017-10-02T21:17:55.988Z,100334.05
2017-10-02T21:20:24.298Z,100336.23
2017-10-02T21:22:52.618Z,100334.73
2017-10-02T21:25:20.922Z,100328.59
2017-10-02T21:27:49.240Z,100327.64
2017-10-02T21:30:18.320Z,100327.09
2017-10-02T21:32:46.636Z,100327.49
2017-10-02T21:35:14.943Z,100325.86
2017-10-02T21:37:43.269Z,100323.94
2017-10-02T21:40:11.594Z,100314.49
2017-10-02T21:42:39.919Z,100321.21
2017-10-02T21:45:08.998Z,100314.63
2017-10-02T21:47:37.343Z,100312.84
2017-10-02T21:50:05.646Z,100312.03
2017-10-02T21:52:33.950Z,100318.73
2017-10-02T21:55:03.031Z,100306.14
2017-10-02T21:57:31.344Z,100302.72
2017-10-02T21:59:59.653Z,100300.00
2017-10-02T22:02:27.965Z,100300.69
2017-10-02T22:04:57.056Z,100299.83
2017-10-02T22:07:25.379Z,100296.14
2017-10-02T22:09:53.713Z,100296.28
2017-10-02T22:12:22.028Z,100296.55
2017-10-02T22:14:50.348Z,100304.49
2017-10-02T22:17:18.659Z,100322.82
2017-10-02T22:19:47.767Z,100324.84
2017-10-02T22:22:16.838Z,100341.52
2017-10-02T22:24:45.937Z,100363.63
2017-10-02T22:27:15.006Z,100351.48
2017-10-02T22:29:43.318Z,100363.27
2017-10-02T22:32:12.385Z,100351.23
2017-10-02T22:34:40.722Z,100357.72
2017-10-02T22:37:09.601Z,100366.42
2017-10-02T22:39:37.969Z,100368.66
2017-10-02T22:42:07.047Z,100367.55
2017-10-02T22:44:36.129Z,100359.34
2017-10-02T22:47:04.441Z,100362.23
2017-10-02T22:49:32.754Z,100362.36
2017-10-02T22:52:01.068Z,100369.30
2017-10-02T22:54:29.369Z,100363.56
2017-10-02T22:56:58.459Z,100360.81
2017-10-02T22:59:27.541Z,100354.95
2017-10-02T23:01:56.678Z,100352.77
2017-10-02T23:04:24.986Z,100356.00
2017-10-02T23:06:53.315Z,100356.98
2017-10-02T23:09:21.622Z,100369.09
2017-10-02T23:11:49.933Z,100362.14
2017-10-02T23:14:18.246Z,100359.72
2017-10-02T23:16:46.560Z,100359.06
2017-10-02T23:19:14.863Z,100363.11
2017-10-02T23:21:43.182Z,100347.81
2017-10-02T23:24:11.494Z,100347.81
2017-10-02T23:26:39.838Z,100359.80
2017-10-02T23:29:08.149Z,100364.19
2017-10-02T23:31:36.474Z,100361.09
2017-10-02T23:34:05.561Z,100355.87
2017-10-02T23:36:34.654Z,100356.34
2017-10-02T23:39:03.754Z,100352.67
2017-10-02T23:41:32.853Z,100343.91
2017-10-02T23:44:01.930Z,100337.20
2017-10-02T23:46:31.034Z,100334.91
2017-10-02T23:49:00.121Z,100326.55
2017-10-02T23:51:28.433Z,100328.18
2017-10-02T23:53:56.755Z,100315.05
2017-10-02T23:56:25.058Z,100316.80
2017-10-02T23:58:53.376Z,100315.42
